Dana, NC (28724)

5:16 AM EST on February 11, 2016 (GMT -0500)
Dana | | Change Station
CLOSE
Current Station
Personal Weather Station
Location: Hendersonville, NC
Elevation: 2208 ft
Nearby Weather Stations

Elev 2208 ft 35.34 °N, 82.38 °W | Updated 50 seconds ago

Partly Cloudy
Partly Cloudy
19.7 °F
Feels Like 20 °F
N
2.0
Wind Variable Wind from North
Gusts 3.0 mph

Today
High -- | Low -- °F
--% Chance of Precip.
Yesterday
High -- | Low -- °F
Precip. -- in
Pressure 30.11 in
Visibility 10.0 miles
Clouds Scattered Clouds 3700 ft
Overcast 5500 ft
Windchill 20 °F
Dew Point 13 °F
Humidity 76%
Rainfall 0.00 in
Snow Depth Not available.
7:20 AM 6:07 PM
Waxing Crescent, 11% visible
METAR KAVL 110954Z AUTO 33008KT 10SM SCT037 OVC055 M07/M12 A3005 RMK AO2 SLP195 T10671117
Pressure 30.11 in
Visibility 10.0 miles
Clouds Scattered Clouds 3700 ft
Overcast 5500 ft
Windchill 20 °F
Dew Point 13 °F
Humidity 76%
Rainfall 0.00 in
Snow Depth Not available.
7:20 AM 6:07 PM
Waxing Crescent, 11% visible
METAR KAVL 110954Z AUTO 33008KT 10SM SCT037 OVC055 M07/M12 A3005 RMK AO2 SLP195 T10671117

10-Day Weather Forecast

Almanac

Astronomy

Feb. 11, 2016 Rise Set
Actual Time
Civil Twilight
Nautical Twilight
Astronomical Twilight
Moon
Length of Visible Light
Length of Day
Tomorrow will be .
, % of the Moon is Illuminated

Today's Extremes

State Highs State Lows

Community

WunderPhotos

Upload Photos

1,892,030 photos uploaded!

WunderBlog® & News

Nearby

Air Quality

  Air Quality AQ Index Pollutant
Not available.

Snow Depth

Station Depth Elevation

Earthquake Activity

City Distance Mag. Time & Date
Minimum magnitude displayed is 2.5.

Coastal Water Temperatures

Place Temperature

Stations

Nearby Weather Stations

Station Location Temp. Windchill Dew Point Humidity Wind Precip. Elev Updated Type
                   

Watches & Warnings

There are currently no watches in effect.